Time;durP1;ratioP1;P1;durP2;ratioP2;P2;SDS_P1;SDS_P2;PMS_P1;PMS_P2;Temp;Humidity;BMP_temperature;BMP_pressure;BME280_temperature;BME280_humidity;BME280_pressure;Samples;Min_cycle;Max_cycle;Signal;HPM_P1;HPM_P2
2021/08/09 00:01:50;;;;;;;6.50;2.30;;;;;22.80;100532.20;;;;94339;1201;93590;-57
2021/08/09 00:03:51;;;;;;;8.20;2.60;;;;;22.80;100525.00;;;;94359;1200;93469;-57
2021/08/09 00:05:53;;;;;;;5.80;2.20;;;;;22.80;100526.80;;;;94323;1200;92496;-57
2021/08/09 00:07:54;;;;;;;7.10;2.20;;;;;22.80;100530.40;;;;94369;1201;93132;-57
2021/08/09 00:09:56;;;;;;;7.80;2.50;;;;;22.80;100527.60;;;;94350;1201;93549;-58
2021/08/09 00:11:58;;;;;;;7.00;2.40;;;;;22.80;100526.80;;;;94239;1201;93582;-58
2021/08/09 00:13:59;;;;;;;4.60;1.90;;;;;22.80;100535.20;;;;94365;1201;92498;-57
2021/08/09 00:16:01;;;;;;;8.60;2.40;;;;;22.80;100533.40;;;;94354;1201;93006;-52
2021/08/09 00:18:02;;;;;;;5.50;2.10;;;;;22.80;100534.00;;;;94372;1200;93285;-52
2021/08/09 00:20:05;;;;;;;4.60;2.00;;;;;22.80;100535.80;;;;94319;1201;93692;-53
2021/08/09 00:22:09;;;;;;;7.00;2.20;;;;;22.80;100537.00;;;;94372;1193;92174;-52
2021/08/09 00:24:11;;;;;;;7.60;2.30;;;;;22.80;100540.00;;;;94340;1200;92498;-52
2021/08/09 00:26:12;;;;;;;5.20;2.10;;;;;22.80;100542.40;;;;94349;1193;92825;-52
2021/08/09 00:28:14;;;;;;;8.20;2.30;;;;;22.80;100540.60;;;;94348;1201;93223;-52
2021/08/09 00:30:15;;;;;;;6.90;2.40;;;;;22.80;100547.80;;;;94332;1195;92301;-52
2021/08/09 00:32:18;;;;;;;5.80;2.20;;;;;22.80;100553.20;;;;94373;1201;92326;-52
2021/08/09 00:34:20;;;;;;;4.80;2.10;;;;;22.80;100556.40;;;;94323;1201;93432;-52
2021/08/09 00:36:21;;;;;;;4.70;2.30;;;;;22.80;100563.40;;;;94362;1193;92800;-57
2021/08/09 00:38:22;;;;;;;6.90;2.60;;;;;22.80;100568.40;;;;94347;1193;92699;-57
2021/08/09 00:40:24;;;;;;;6.30;2.10;;;;;22.80;100567.80;;;;94371;1201;93343;-52
2021/08/09 00:42:25;;;;;;;5.90;2.00;;;;;22.80;100569.80;;;;94339;1200;92518;-52
2021/08/09 00:44:27;;;;;;;6.50;1.90;;;;;22.80;100563.80;;;;94349;1192;92516;-52
2021/08/09 00:46:29;;;;;;;5.90;1.90;;;;;22.80;100563.60;;;;94352;1200;92740;-52
2021/08/09 00:48:34;;;;;;;5.30;2.10;;;;;22.72;100563.40;;;;94347;1194;92302;-51
2021/08/09 00:50:35;;;;;;;4.80;2.30;;;;;22.70;100560.60;;;;94368;1200;93425;-57
2021/08/09 00:52:37;;;;;;;5.60;2.40;;;;;22.70;100565.60;;;;94174;1201;92517;-58
2021/08/09 00:54:38;;;;;;;6.10;2.40;;;;;22.70;100558.40;;;;94240;1201;93706;-57
2021/08/09 00:56:41;;;;;;;6.30;2.40;;;;;22.70;100558.60;;;;94355;1194;91998;-58
2021/08/09 00:58:42;;;;;;;6.40;2.40;;;;;22.70;100551.60;;;;94394;1201;93370;-58
2021/08/09 01:00:44;;;;;;;7.90;2.40;;;;;22.70;100545.20;;;;94392;1200;92608;-52
2021/08/09 01:02:45;;;;;;;7.00;2.30;;;;;22.70;100540.40;;;;94336;1193;92331;-52
2021/08/09 01:04:47;;;;;;;7.10;2.50;;;;;22.70;100543.80;;;;94375;1195;92154;-53
2021/08/09 01:06:49;;;;;;;5.30;2.10;;;;;22.72;100549.60;;;;94316;1200;93198;-58
2021/08/09 01:09:12;;;;;;;4.70;1.90;;;;;22.70;100546.60;;;;94337;1201;93261;-57
2021/08/09 01:11:19;;;;;;;4.80;2.20;;;;;22.70;100542.20;;;;94357;1200;93348;-51
2021/08/09 01:13:24;;;;;;;6.30;2.00;;;;;22.70;100539.80;;;;94404;1201;93489;-52
2021/08/09 01:15:35;;;;;;;5.70;2.30;;;;;22.70;100537.60;;;;94374;1193;92511;-57
2021/08/09 01:17:39;;;;;;;8.00;2.40;;;;;22.70;100534.60;;;;94413;1201;93206;-58
2021/08/09 01:20:02;;;;;;;3.00;1.70;;;;;22.70;100531.20;;;;94358;1201;93210;-57
2021/08/09 01:22:42;;;;;;;10.40;2.40;;;;;22.70;100532.40;;;;94387;1201;93484;-52
2021/08/09 01:25:07;;;;;;;6.00;2.30;;;;;22.70;100532.00;;;;94332;1201;92498;-52
2021/08/09 01:27:23;;;;;;;5.50;2.50;;;;;22.70;100534.00;;;;94189;1194;92274;-52
2021/08/09 01:29:30;;;;;;;5.10;2.40;;;;;22.70;100534.80;;;;94349;1201;93291;-52
2021/08/09 01:31:41;;;;;;;6.70;2.60;;;;;22.70;100529.00;;;;94257;1195;92496;-57
2021/08/09 01:33:42;;;;;;;5.30;2.30;;;;;22.70;100521.00;;;;94217;1202;92995;-58
2021/08/09 01:35:44;;;;;;;7.00;2.70;;;;;22.70;100524.20;;;;94116;1196;92515;-57
2021/08/09 01:37:47;;;;;;;6.60;2.50;;;;;22.70;100526.80;;;;94339;1193;93280;-57
2021/08/09 01:39:49;;;;;;;5.20;2.30;;;;;22.70;100522.20;;;;94349;1200;92493;-58
2021/08/09 01:41:51;;;;;;;5.90;2.70;;;;;22.70;100524.40;;;;94393;1201;93489;-52
2021/08/09 01:43:52;;;;;;;5.40;2.20;;;;;22.70;100527.60;;;;94340;1200;93235;-52
2021/08/09 01:45:54;;;;;;;4.50;2.20;;;;;22.70;100528.40;;;;94091;1202;93104;-52
2021/08/09 01:47:56;;;;;;;6.40;2.50;;;;;22.70;100529.20;;;;94223;1201;93435;-52
2021/08/09 01:49:58;;;;;;;6.20;2.60;;;;;22.70;100537.80;;;;94193;1201;92261;-52
2021/08/09 01:52:01;;;;;;;6.10;2.40;;;;;22.70;100540.80;;;;94212;1196;92375;-52
2021/08/09 01:54:02;;;;;;;4.80;2.30;;;;;22.70;100535.60;;;;94206;1201;93455;-52
2021/08/09 01:56:04;;;;;;;5.40;2.30;;;;;22.70;100543.40;;;;94363;1200;92288;-58
2021/08/09 01:58:05;;;;;;;6.10;2.60;;;;;22.70;100544.20;;;;94383;1201;93268;-57
2021/08/09 02:00:09;;;;;;;6.00;2.20;;;;;22.70;100546.20;;;;94376;1201;93723;-53
2021/08/09 02:02:11;;;;;;;6.30;2.60;;;;;22.70;100542.60;;;;94408;1201;92092;-52
2021/08/09 02:04:12;;;;;;;6.80;2.70;;;;;22.70;100543.80;;;;94318;1201;92570;-51
2021/08/09 02:06:14;;;;;;;8.20;2.90;;;;;22.70;100549.80;;;;94351;1194;92262;-57
2021/08/09 02:08:16;;;;;;;8.30;2.40;;;;;22.70;100554.00;;;;94384;1193;93267;-57
2021/08/09 02:10:22;;;;;;;6.30;2.80;;;;;22.70;100555.40;;;;94204;1201;93232;-56
2021/08/09 02:12:23;;;;;;;6.40;2.50;;;;;22.70;100550.40;;;;94374;1201;93425;-57
2021/08/09 02:14:26;;;;;;;4.80;2.20;;;;;22.70;100546.40;;;;94196;1201;93226;-57
2021/08/09 02:16:37;;;;;;;9.70;2.40;;;;;22.70;100537.00;;;;94379;1202;92356;-51
2021/08/09 02:18:40;;;;;;;5.00;2.60;;;;;22.70;100533.00;;;;94360;1201;93454;-51
2021/08/09 02:20:42;;;;;;;6.60;2.90;;;;;22.70;100533.00;;;;94369;1193;92313;-56
2021/08/09 02:22:45;;;;;;;7.20;3.20;;;;;22.68;100536.80;;;;94364;1201;92531;-56
2021/08/09 02:24:58;;;;;;;6.40;2.70;;;;;22.70;100537.40;;;;94357;1200;92518;-56
2021/08/09 02:27:05;;;;;;;6.00;2.50;;;;;22.70;100546.00;;;;94376;1201;92371;-57
2021/08/09 02:29:10;;;;;;;7.60;2.80;;;;;22.70;100543.60;;;;94382;1201;93275;-57
2021/08/09 02:31:12;;;;;;;6.50;2.70;;;;;22.70;100546.00;;;;94353;1201;92488;-56
2021/08/09 02:33:13;;;;;;;8.20;2.60;;;;;22.70;100547.20;;;;94332;1201;93574;-57
2021/08/09 02:35:16;;;;;;;7.00;2.50;;;;;22.68;100547.60;;;;94087;1202;93160;-56
2021/08/09 02:37:18;;;;;;;6.10;2.80;;;;;22.68;100552.20;;;;94414;1201;93367;-57
2021/08/09 02:39:19;;;;;;;6.30;2.60;;;;;22.70;100555.40;;;;94171;1201;93272;-56
2021/08/09 02:41:21;;;;;;;6.60;2.80;;;;;22.70;100563.40;;;;94155;1201;93311;-52
2021/08/09 02:43:22;;;;;;;5.70;2.60;;;;;22.70;100564.20;;;;94363;1200;93477;-51
2021/08/09 02:45:24;;;;;;;5.70;2.30;;;;;22.70;100567.20;;;;94355;1201;92519;-56
2021/08/09 02:47:26;;;;;;;6.90;2.70;;;;;22.70;100591.20;;;;94328;1193;93102;-56
2021/08/09 02:49:27;;;;;;;6.90;2.90;;;;;22.60;100610.00;;;;94084;1202;92347;-56
2021/08/09 02:51:29;;;;;;;6.30;2.70;;;;;22.50;100599.00;;;;94374;1201;93463;-51
2021/08/09 02:53:30;;;;;;;7.90;2.80;;;;;22.52;100601.40;;;;94204;1193;92494;-51
2021/08/09 02:55:32;;;;;;;6.80;3.00;;;;;22.60;100609.60;;;;94088;1202;93828;-52
2021/08/09 02:57:33;;;;;;;6.80;2.80;;;;;22.60;100611.40;;;;94367;1201;92504;-52
2021/08/09 02:59:35;;;;;;;5.60;2.30;;;;;22.60;100614.60;;;;94202;1196;92380;-52
2021/08/09 03:01:36;;;;;;;5.70;2.60;;;;;22.60;100618.20;;;;94193;1202;93552;-51
2021/08/09 03:03:38;;;;;;;5.80;2.50;;;;;22.60;100612.00;;;;94179;1201;93294;-52
2021/08/09 03:05:39;;;;;;;6.90;2.60;;;;;22.60;100607.40;;;;94169;1201;92353;-52
2021/08/09 03:07:42;;;;;;;6.40;2.60;;;;;22.60;100605.40;;;;94374;1201;93255;-52
2021/08/09 03:09:43;;;;;;;7.10;3.00;;;;;22.60;100612.60;;;;94380;1201;93430;-51
2021/08/09 03:11:45;;;;;;;6.10;2.90;;;;;22.60;100619.40;;;;94312;1201;93212;-57
2021/08/09 03:13:47;;;;;;;7.90;3.00;;;;;22.62;100626.80;;;;94369;1194;92763;-57
2021/08/09 03:15:50;;;;;;;5.40;2.60;;;;;22.60;100627.40;;;;94371;1193;93002;-57
2021/08/09 03:17:52;;;;;;;5.10;2.60;;;;;22.60;100632.20;;;;94335;1201;93456;-57
2021/08/09 03:19:54;;;;;;;9.10;2.70;;;;;22.60;100630.80;;;;94359;1201;92208;-57
2021/08/09 03:21:57;;;;;;;5.10;2.50;;;;;22.60;100634.60;;;;94357;1201;93451;-51
2021/08/09 03:23:59;;;;;;;6.50;2.90;;;;;22.62;100636.00;;;;94335;1193;92365;-52
2021/08/09 03:26:00;;;;;;;5.60;2.50;;;;;22.62;100645.00;;;;94376;1200;92523;-52
2021/08/09 03:28:02;;;;;;;6.80;2.70;;;;;22.62;100645.80;;;;94364;1201;93203;-52
2021/08/09 03:30:05;;;;;;;7.30;2.90;;;;;22.60;100652.40;;;;94349;1201;92576;-53
2021/08/09 03:32:06;;;;;;;6.40;2.70;;;;;22.60;100650.20;;;;94372;1192;92236;-52
2021/08/09 03:34:08;;;;;;;6.30;2.70;;;;;22.60;100652.20;;;;94335;1201;93666;-52
2021/08/09 03:36:09;;;;;;;5.90;2.80;;;;;22.60;100653.60;;;;94390;1202;93370;-51
2021/08/09 03:38:11;;;;;;;6.00;2.90;;;;;22.60;100659.60;;;;94390;1202;93475;-51
2021/08/09 03:40:13;;;;;;;6.00;2.50;;;;;22.60;100663.60;;;;94363;1201;93373;-52
2021/08/09 03:42:14;;;;;;;8.00;3.10;;;;;22.60;100668.40;;;;94331;1200;93325;-51
2021/08/09 03:44:15;;;;;;;5.70;2.30;;;;;22.62;100669.00;;;;94340;1200;93424;-51
2021/08/09 03:46:17;;;;;;;6.30;2.60;;;;;22.60;100664.20;;;;94349;1201;93253;-57
2021/08/09 03:48:19;;;;;;;8.10;3.00;;;;;22.60;100665.40;;;;94369;1201;93066;-57
2021/08/09 03:50:20;;;;;;;5.80;2.80;;;;;22.60;100665.60;;;;94362;1201;93273;-57
2021/08/09 03:52:22;;;;;;;4.70;2.40;;;;;22.60;100660.40;;;;94330;1193;92415;-57
2021/08/09 03:54:23;;;;;;;6.00;2.70;;;;;22.60;100664.40;;;;94358;1201;93349;-57
2021/08/09 03:56:25;;;;;;;5.60;2.60;;;;;22.60;100672.00;;;;94378;1201;93983;-52
2021/08/09 03:58:26;;;;;;;7.30;3.00;;;;;22.60;100669.00;;;;94331;1202;92880;-51
2021/08/09 04:00:28;;;;;;;5.60;2.50;;;;;22.68;100661.80;;;;94329;1201;92152;-51
2021/08/09 04:02:31;;;;;;;5.20;2.40;;;;;22.64;100662.20;;;;94380;1196;92562;-51
2021/08/09 04:04:32;;;;;;;5.40;2.40;;;;;22.62;100663.60;;;;94358;1201;93139;-52
2021/08/09 04:06:34;;;;;;;5.70;2.50;;;;;22.60;100657.00;;;;94364;1201;93461;-51
2021/08/09 04:08:39;;;;;;;5.20;2.60;;;;;22.62;100657.40;;;;94399;1201;92496;-51
2021/08/09 04:10:41;;;;;;;5.40;2.70;;;;;22.60;100658.00;;;;94373;1193;92627;-52
2021/08/09 04:12:42;;;;;;;5.30;2.70;;;;;22.66;100666.00;;;;94406;1194;93534;-52
2021/08/09 04:14:44;;;;;;;5.60;2.70;;;;;22.60;100666.20;;;;94368;1194;92331;-52
2021/08/09 04:16:45;;;;;;;7.40;2.70;;;;;22.62;100669.80;;;;94379;1195;92547;-57
2021/08/09 04:18:46;;;;;;;7.20;2.60;;;;;22.60;100667.20;;;;94350;1201;93457;-57
2021/08/09 04:20:48;;;;;;;7.40;2.70;;;;;22.60;100668.00;;;;94365;1199;93220;-52
2021/08/09 04:22:49;;;;;;;7.00;2.60;;;;;22.68;100667.20;;;;94397;1201;92543;-51
2021/08/09 04:24:51;;;;;;;5.50;2.50;;;;;22.70;100668.40;;;;94358;1201;93579;-51
2021/08/09 04:26:52;;;;;;;4.20;2.10;;;;;22.60;100675.40;;;;94393;1201;93398;-57
2021/08/09 04:28:54;;;;;;;5.70;2.50;;;;;22.62;100682.60;;;;94378;1193;92982;-57
2021/08/09 04:30:55;;;;;;;5.80;2.80;;;;;22.62;100675.80;;;;94405;1200;93448;-57
2021/08/09 04:33:01;;;;;;;5.90;2.60;;;;;22.66;100674.60;;;;94364;1201;93438;-58
2021/08/09 04:35:05;;;;;;;6.00;2.80;;;;;22.68;100680.40;;;;94372;1193;92486;-55
2021/08/09 04:37:06;;;;;;;6.30;2.80;;;;;22.70;100681.20;;;;94376;1201;93496;-57
2021/08/09 04:39:08;;;;;;;5.60;2.60;;;;;22.66;100682.40;;;;94343;1193;92273;-57
2021/08/09 04:41:10;;;;;;;5.40;2.80;;;;;22.60;100683.60;;;;94388;1200;92255;-51
2021/08/09 04:43:11;;;;;;;5.70;2.70;;;;;22.60;100688.60;;;;94378;1194;92245;-52
2021/08/09 04:45:13;;;;;;;5.60;2.50;;;;;22.60;100685.60;;;;94384;1192;92502;-57
2021/08/09 04:47:14;;;;;;;5.10;2.40;;;;;22.60;100682.80;;;;94413;1201;93783;-57
2021/08/09 04:49:16;;;;;;;5.20;2.60;;;;;22.60;100682.60;;;;94364;1201;92387;-57
2021/08/09 04:51:18;;;;;;;5.90;2.70;;;;;22.60;100682.00;;;;94342;1201;93278;-52
2021/08/09 04:53:19;;;;;;;5.70;2.70;;;;;22.60;100681.60;;;;94365;1201;93589;-51
2021/08/09 04:55:21;;;;;;;6.80;2.70;;;;;22.60;100686.80;;;;94354;1200;93370;-52
2021/08/09 04:57:23;;;;;;;6.00;2.60;;;;;22.60;100687.40;;;;94366;1201;92492;-52
2021/08/09 04:59:24;;;;;;;8.30;2.60;;;;;22.60;100686.60;;;;94377;1201;93378;-51
2021/08/09 05:01:26;;;;;;;6.40;2.70;;;;;22.60;100680.20;;;;94378;1201;92292;-51
2021/08/09 05:03:27;;;;;;;6.30;2.50;;;;;22.60;100682.80;;;;94345;1201;92518;-51
2021/08/09 05:05:28;;;;;;;6.00;2.60;;;;;22.70;100681.80;;;;94367;1200;93428;-57
2021/08/09 05:07:30;;;;;;;5.40;2.60;;;;;22.70;100679.40;;;;94365;1202;92881;-57
2021/08/09 05:09:32;;;;;;;7.50;2.90;;;;;22.70;100680.20;;;;94381;1193;92264;-57
2021/08/09 05:11:34;;;;;;;4.70;2.40;;;;;22.68;100685.20;;;;94433;1192;92355;-57
2021/08/09 05:13:35;;;;;;;5.80;2.70;;;;;22.70;100682.00;;;;94387;1202;92345;-57
2021/08/09 05:15:38;;;;;;;5.80;2.50;;;;;22.70;100686.80;;;;94388;1200;93947;-57
2021/08/09 05:17:40;;;;;;;7.30;2.70;;;;;22.70;100686.60;;;;94380;1201;93096;-57
2021/08/09 05:19:42;;;;;;;6.10;2.60;;;;;22.70;100685.20;;;;94360;1193;92508;-57
2021/08/09 05:21:44;;;;;;;5.90;2.30;;;;;22.70;100690.20;;;;94379;1201;92324;-52
2021/08/09 05:23:46;;;;;;;6.60;2.50;;;;;22.70;100695.60;;;;94381;1201;93428;-51
2021/08/09 05:25:47;;;;;;;5.80;2.70;;;;;22.70;100694.00;;;;94362;1194;92505;-52
2021/08/09 05:27:49;;;;;;;5.50;2.50;;;;;22.70;100693.80;;;;94387;1201;93431;-52
2021/08/09 05:29:50;;;;;;;6.20;2.40;;;;;22.70;100695.20;;;;94382;1201;92494;-52
2021/08/09 05:31:52;;;;;;;5.40;2.30;;;;;22.70;100694.40;;;;94372;1194;93542;-51
2021/08/09 05:33:57;;;;;;;5.00;2.30;;;;;22.70;100696.60;;;;94331;1201;92330;-51
2021/08/09 05:35:59;;;;;;;6.50;2.70;;;;;22.70;100699.20;;;;94361;1194;92470;-52
2021/08/09 05:38:02;;;;;;;4.80;2.20;;;;;22.70;100704.40;;;;94387;1200;93453;-52
2021/08/09 05:40:04;;;;;;;5.50;2.40;;;;;22.70;100705.00;;;;94373;1201;93324;-57
2021/08/09 05:42:06;;;;;;;6.40;2.60;;;;;22.70;100706.20;;;;94355;1201;93775;-57
2021/08/09 05:44:08;;;;;;;5.60;2.40;;;;;22.68;100705.60;;;;94378;1201;93319;-58
2021/08/09 05:46:09;;;;;;;4.50;2.00;;;;;22.70;100709.60;;;;94354;1201;93245;-58
2021/08/09 05:48:11;;;;;;;6.60;2.70;;;;;22.70;100703.40;;;;94388;1201;93229;-57
2021/08/09 05:50:12;;;;;;;6.90;3.50;;;;;22.60;100713.40;;;;94334;1202;93286;-52
2021/08/09 05:52:19;;;;;;;6.60;2.90;;;;;22.50;100706.80;;;;94379;1201;93440;-52
2021/08/09 05:54:20;;;;;;;8.30;2.70;;;;;22.60;100703.60;;;;94381;1201;91927;-52
2021/08/09 05:56:21;;;;;;;5.50;2.70;;;;;22.60;100706.80;;;;94395;1202;93419;-52
2021/08/09 05:58:23;;;;;;;8.40;2.70;;;;;22.60;100705.40;;;;94386;1195;92632;-52
2021/08/09 06:00:25;;;;;;;6.50;2.70;;;;;22.64;100706.40;;;;94388;1201;93296;-52
2021/08/09 06:02:26;;;;;;;6.00;2.50;;;;;22.70;100712.00;;;;94380;1194;93310;-51
2021/08/09 06:04:28;;;;;;;6.20;2.60;;;;;22.60;100706.20;;;;94377;1201;92573;-52
2021/08/09 06:06:29;;;;;;;6.10;2.50;;;;;22.60;100706.60;;;;94389;1201;92050;-51
2021/08/09 06:08:31;;;;;;;5.70;2.60;;;;;22.64;100709.60;;;;94396;1200;92506;-50
2021/08/09 06:10:32;;;;;;;6.20;2.70;;;;;22.66;100716.80;;;;94364;1201;92897;-51
2021/08/09 06:12:36;;;;;;;6.00;2.50;;;;;22.70;100714.60;;;;94364;1201;93212;-51
2021/08/09 06:14:37;;;;;;;6.60;2.70;;;;;22.80;100718.60;;;;94381;1201;92550;-51
2021/08/09 06:16:39;;;;;;;9.10;3.20;;;;;22.78;100720.80;;;;94373;1194;92385;-57
2021/08/09 06:18:40;;;;;;;6.20;3.00;;;;;22.60;100718.00;;;;94377;1194;92275;-57
2021/08/09 06:20:42;;;;;;;5.60;2.40;;;;;22.70;100720.20;;;;94373;1200;92311;-57
2021/08/09 06:22:43;;;;;;;6.00;2.40;;;;;22.70;100727.00;;;;94393;1194;92298;-57
2021/08/09 06:24:44;;;;;;;6.60;3.10;;;;;22.70;100725.20;;;;94389;1201;93480;-57
2021/08/09 06:26:46;;;;;;;8.00;2.90;;;;;22.70;100723.20;;;;94397;1201;93303;-51
2021/08/09 06:28:47;;;;;;;7.90;3.00;;;;;22.62;100718.00;;;;94401;1201;93453;-52
2021/08/09 06:30:49;;;;;;;5.90;2.60;;;;;22.70;100714.80;;;;94408;1201;93677;-52
2021/08/09 06:32:50;;;;;;;6.80;2.60;;;;;22.70;100718.60;;;;94384;1196;92326;-51
2021/08/09 06:34:52;;;;;;;6.40;2.70;;;;;22.70;100723.80;;;;94392;1194;92294;-51
2021/08/09 06:36:53;;;;;;;6.00;2.30;;;;;22.60;100721.20;;;;94395;1200;93211;-52
2021/08/09 06:38:55;;;;;;;8.80;2.70;;;;;22.70;100721.60;;;;94368;1201;93448;-52
2021/08/09 06:40:56;;;;;;;6.00;2.50;;;;;22.70;100724.60;;;;94391;1201;92728;-52
2021/08/09 06:42:57;;;;;;;7.00;2.80;;;;;22.80;100728.40;;;;94375;1202;93438;-51
2021/08/09 06:44:59;;;;;;;5.00;2.50;;;;;22.80;100726.60;;;;94411;1201;92119;-51
2021/08/09 06:47:01;;;;;;;6.50;2.50;;;;;22.80;100729.80;;;;94163;1195;92261;-51
2021/08/09 06:49:04;;;;;;;6.90;2.40;;;;;22.80;100725.60;;;;94399;1202;93229;-52
2021/08/09 06:51:05;;;;;;;6.30;2.60;;;;;22.80;100726.20;;;;94401;1202;92541;-57
2021/08/09 06:53:07;;;;;;;5.80;2.10;;;;;22.80;100727.40;;;;94407;1192;93430;-58
2021/08/09 06:55:09;;;;;;;8.10;3.00;;;;;22.80;100728.40;;;;94404;1201;93140;-57
2021/08/09 06:57:12;;;;;;;7.30;2.30;;;;;22.80;100731.20;;;;94438;1192;92188;-58
2021/08/09 06:59:13;;;;;;;7.80;2.90;;;;;22.70;100731.00;;;;94410;1200;92516;-57
2021/08/09 07:01:15;;;;;;;6.60;2.70;;;;;22.60;100729.20;;;;94391;1200;92543;-57
2021/08/09 07:03:17;;;;;;;6.70;2.40;;;;;22.60;100732.80;;;;94398;1201;93721;-58
2021/08/09 07:05:19;;;;;;;7.10;2.50;;;;;22.52;100739.40;;;;94395;1193;92249;-57
2021/08/09 07:07:20;;;;;;;6.00;2.20;;;;;22.60;100743.40;;;;94398;1201;92259;-58
2021/08/09 07:09:22;;;;;;;6.80;2.50;;;;;22.70;100748.40;;;;94422;1201;92967;-57
2021/08/09 07:11:23;;;;;;;9.20;2.70;;;;;22.78;100753.40;;;;94421;1201;92484;-52
2021/08/09 07:13:25;;;;;;;5.70;2.40;;;;;22.70;100754.80;;;;94398;1193;92494;-52
2021/08/09 07:15:26;;;;;;;8.50;2.50;;;;;22.78;100759.00;;;;94359;1201;92537;-57
2021/08/09 07:17:28;;;;;;;7.10;2.60;;;;;22.80;100758.00;;;;94407;1192;92276;-57
2021/08/09 07:19:29;;;;;;;7.50;3.00;;;;;22.80;100757.80;;;;94393;1201;92113;-57
2021/08/09 07:21:31;;;;;;;6.70;2.40;;;;;22.70;100755.40;;;;94368;1195;92519;-53
2021/08/09 07:23:32;;;;;;;7.30;3.00;;;;;22.82;100757.60;;;;94563;1201;92373;-54
2021/08/09 07:25:34;;;;;;;5.00;2.10;;;;;22.80;100760.80;;;;94557;1201;93613;-53
2021/08/09 07:27:36;;;;;;;8.60;2.90;;;;;22.80;100764.60;;;;94539;1200;93715;-56
2021/08/09 07:29:37;;;;;;;5.90;2.70;;;;;22.80;100765.20;;;;94582;1201;93526;-53
2021/08/09 07:31:39;;;;;;;6.70;2.80;;;;;22.80;100767.20;;;;94536;1201;93529;-55
2021/08/09 07:33:41;;;;;;;10.00;2.60;;;;;22.80;100767.60;;;;94594;1200;93545;-55
2021/08/09 07:35:43;;;;;;;7.50;2.90;;;;;22.80;100766.40;;;;94566;1201;93405;-58
2021/08/09 07:37:44;;;;;;;7.70;2.80;;;;;22.80;100763.60;;;;94559;1201;92860;-57
2021/08/09 07:39:46;;;;;;;11.40;3.00;;;;;22.80;100760.80;;;;94086;1202;93806;-58
2021/08/09 07:41:47;;;;;;;7.80;2.60;;;;;22.80;100764.40;;;;94133;1201;93041;-61
2021/08/09 07:43:49;;;;;;;10.30;2.30;;;;;22.80;100763.80;;;;94382;1194;92271;-59
2021/08/09 07:45:50;;;;;;;9.70;2.70;;;;;22.90;100764.00;;;;94402;1201;93557;-63
2021/08/09 07:47:52;;;;;;;6.50;2.40;;;;;22.90;100761.00;;;;94186;1201;94006;-56
2021/08/09 07:49:54;;;;;;;7.80;2.50;;;;;22.90;100763.20;;;;94392;1201;93286;-56
2021/08/09 07:51:56;;;;;;;6.00;2.80;;;;;22.90;100766.20;;;;94401;1200;93503;-56
2021/08/09 07:53:57;;;;;;;6.10;2.30;;;;;22.90;100767.20;;;;94159;1201;94311;-57
2021/08/09 07:55:59;;;;;;;7.50;2.20;;;;;22.90;100772.60;;;;94414;1201;92458;-59
2021/08/09 07:58:00;;;;;;;7.80;3.00;;;;;22.98;100772.60;;;;94398;1201;93145;-56
2021/08/09 08:00:03;;;;;;;9.20;2.20;;;;;22.98;100773.80;;;;94373;1201;93772;-55
2021/08/09 08:02:04;;;;;;;6.20;2.30;;;;;23.00;100772.40;;;;94566;1201;93443;-52
2021/08/09 08:04:06;;;;;;;5.20;1.90;;;;;23.00;100774.40;;;;94393;1193;92508;-62
2021/08/09 08:06:07;;;;;;;6.00;2.30;;;;;23.00;100773.80;;;;94592;1193;93365;-62
2021/08/09 08:08:10;;;;;;;5.20;2.10;;;;;22.90;100774.60;;;;94614;1193;92323;-61
2021/08/09 08:10:12;;;;;;;6.70;2.20;;;;;22.90;100772.80;;;;94579;1200;92505;-61
2021/08/09 08:12:13;;;;;;;7.40;2.30;;;;;22.90;100775.20;;;;94559;1200;93206;-62
2021/08/09 08:14:15;;;;;;;7.80;2.40;;;;;22.90;100778.40;;;;94608;1193;92629;-53
2021/08/09 08:16:16;;;;;;;6.50;2.30;;;;;22.90;100776.80;;;;94563;1201;93228;-55
2021/08/09 08:18:18;;;;;;;6.00;2.10;;;;;22.98;100773.40;;;;94524;1201;94840;-51
2021/08/09 08:20:20;;;;;;;6.40;2.00;;;;;22.90;100779.00;;;;94537;1201;93569;-60
2021/08/09 08:22:21;;;;;;;5.80;1.90;;;;;23.00;100783.00;;;;94528;1200;93286;-60
2021/08/09 08:24:23;;;;;;;5.30;1.90;;;;;23.00;100784.40;;;;94538;1201;93579;-55
2021/08/09 08:26:25;;;;;;;4.60;1.70;;;;;22.90;100785.40;;;;94540;1201;93256;-53
2021/08/09 08:28:26;;;;;;;6.90;2.30;;;;;22.90;100783.20;;;;94558;1201;93262;-53
2021/08/09 08:30:28;;;;;;;6.90;1.90;;;;;22.90;100784.20;;;;94547;1200;93249;-54
2021/08/09 08:32:29;;;;;;;5.90;1.90;;;;;22.90;100786.80;;;;94557;1201;93281;-54
2021/08/09 08:34:31;;;;;;;4.60;1.80;;;;;22.90;100788.60;;;;94560;1201;93435;-54
2021/08/09 08:36:32;;;;;;;5.00;1.90;;;;;22.90;100789.60;;;;94556;1196;92520;-53
2021/08/09 08:38:35;;;;;;;6.40;1.80;;;;;22.80;100787.80;;;;94528;1201;93226;-54
2021/08/09 08:40:45;;;;;;;5.40;1.80;;;;;22.90;100784.60;;;;94549;1201;93703;-54
2021/08/09 08:42:47;;;;;;;5.90;1.80;;;;;22.90;100786.20;;;;94538;1201;92583;-54
2021/08/09 08:44:48;;;;;;;6.90;1.80;;;;;22.90;100795.80;;;;94522;1192;93402;-54
2021/08/09 08:46:50;;;;;;;4.10;1.70;;;;;22.90;100793.40;;;;94551;1201;93389;-56
2021/08/09 08:48:51;;;;;;;3.70;1.50;;;;;23.00;100797.80;;;;94067;1201;93221;-56
2021/08/09 08:50:54;;;;;;;8.50;2.00;;;;;23.00;100797.40;;;;94373;1201;92934;-56
2021/08/09 08:52:56;;;;;;;7.80;1.60;;;;;22.90;100797.60;;;;94391;1201;94162;-57
2021/08/09 08:54:58;;;;;;;5.70;1.70;;;;;23.00;100803.20;;;;94515;1201;92342;-56
2021/08/09 08:56:59;;;;;;;4.50;1.50;;;;;23.00;100803.60;;;;94554;1201;93236;-53
2021/08/09 08:59:01;;;;;;;4.80;1.50;;;;;23.08;100806.80;;;;94516;1201;93480;-54
2021/08/09 09:01:02;;;;;;;5.20;1.50;;;;;23.00;100805.60;;;;94529;1193;92515;-56
2021/08/09 09:03:24;;;;;;;4.50;1.60;;;;;22.98;100806.20;;;;94393;1195;92030;-57
2021/08/09 09:05:30;;;;;;;4.30;1.50;;;;;23.00;100807.80;;;;94565;1193;92271;-55
2021/08/09 09:07:32;;;;;;;5.60;2.00;;;;;22.90;100806.20;;;;94584;1193;92418;-56
2021/08/09 09:09:35;;;;;;;4.60;1.50;;;;;23.00;100804.80;;;;94534;1200;93348;-55
2021/08/09 09:11:39;;;;;;;7.00;1.90;;;;;23.00;100809.20;;;;94552;1201;93418;-64
2021/08/09 09:13:55;;;;;;;5.90;1.70;;;;;23.08;100809.20;;;;94376;1201;93700;-57
2021/08/09 09:16:07;;;;;;;5.30;1.60;;;;;23.10;100818.20;;;;94567;1201;93747;-53
2021/08/09 09:18:09;;;;;;;7.60;1.90;;;;;23.10;100814.00;;;;94536;1201;93185;-51
2021/08/09 09:20:27;;;;;;;6.80;1.80;;;;;23.24;100821.80;;;;94541;1194;92539;-58
2021/08/09 09:22:31;;;;;;;4.30;1.70;;;;;23.30;100828.00;;;;94508;1201;92347;-56
2021/08/09 09:24:33;;;;;;;8.60;2.00;;;;;23.30;100830.40;;;;94540;1200;92589;-65
2021/08/09 09:26:36;;;;;;;4.60;1.60;;;;;23.30;100827.00;;;;94389;1193;92497;-65
2021/08/09 09:28:37;;;;;;;4.40;1.90;;;;;23.30;100829.80;;;;94387;1201;93203;-51
2021/08/09 09:30:39;;;;;;;4.90;1.70;;;;;23.30;100826.40;;;;94367;1196;92507;-56
2021/08/09 09:32:40;;;;;;;7.10;1.60;;;;;23.38;100828.40;;;;94095;1195;93007;-58
2021/08/09 09:34:49;;;;;;;6.30;2.00;;;;;23.40;100827.20;;;;94094;1202;93467;-56
2021/08/09 09:36:55;;;;;;;;;;;;;23.50;100834.20;;;;94574;1201;93430;-59
2021/08/09 09:38:57;;;;;;;5.20;1.60;;;;;23.54;100833.60;;;;94539;1201;92828;-59
2021/08/09 09:41:06;;;;;;;5.40;1.50;;;;;23.60;100831.00;;;;94532;1193;92179;-58
2021/08/09 09:43:19;;;;;;;5.30;1.50;;;;;23.64;100831.00;;;;94511;1192;92487;-58
2021/08/09 09:45:27;;;;;;;5.10;1.40;;;;;23.62;100830.00;;;;94532;1192;92552;-61
2021/08/09 09:47:31;;;;;;;5.30;1.70;;;;;23.68;100833.60;;;;94564;1200;93428;-61
2021/08/09 09:49:35;;;;;;;4.80;1.50;;;;;23.70;100835.20;;;;94504;1201;92525;-61
2021/08/09 09:51:45;;;;;;;4.80;1.30;;;;;23.70;100838.20;;;;94548;1201;92085;-62
2021/08/09 09:53:48;;;;;;;4.20;1.50;;;;;23.70;100835.20;;;;94608;1201;93413;-62
2021/08/09 09:55:50;;;;;;;4.30;1.40;;;;;23.70;100834.20;;;;94567;1193;92526;-62
2021/08/09 09:57:52;;;;;;;4.70;1.40;;;;;23.80;100836.20;;;;94565;1192;92515;-61
2021/08/09 09:59:55;;;;;;;5.00;1.30;;;;;23.80;100836.80;;;;94551;1200;93466;-61
2021/08/09 10:01:56;;;;;;;5.50;1.40;;;;;23.80;100841.40;;;;94635;1193;92232;-62
2021/08/09 10:03:58;;;;;;;6.20;1.50;;;;;23.80;100839.00;;;;94584;1201;93564;-61
2021/08/09 10:06:01;;;;;;;5.30;1.70;;;;;23.86;100844.60;;;;94516;1193;92154;-59
2021/08/09 10:08:02;;;;;;;4.90;1.70;;;;;23.90;100846.00;;;;94567;1192;92340;-59